sensor_id;sensor_type;location;lat;lon;timestamp;temperature;humidity
9544;DHT22;30418;51.45933468;7.33152330;2023-05-16T00:00:32;17.60;55.00
9544;DHT22;30418;51.45933468;7.33152330;2023-05-16T00:03:01;17.50;55.00
9544;DHT22;30418;51.45933468;7.33152330;2023-05-16T00:05:31;17.40;55.10
9544;DHT22;30418;51.45933468;7.33152330;2023-05-16T00:08:00;17.40;55.10
9544;DHT22;30418;51.45933468;7.33152330;2023-05-16T00:10:28;17.30;55.20
9544;DHT22;30418;51.45933468;7.33152330;2023-05-16T00:12:57;17.20;55.20
9544;DHT22;30418;51.45933468;7.33152330;2023-05-16T00:15:30;17.20;55.20
9544;DHT22;30418;51.45933468;7.33152330;2023-05-16T00:17:59;17.10;55.50
9544;DHT22;30418;51.45933468;7.33152330;2023-05-16T00:20:28;17.10;55.40
9544;DHT22;30418;51.45933468;7.33152330;2023-05-16T00:22:57;17.10;55.40
9544;DHT22;30418;51.45933468;7.33152330;2023-05-16T00:25:27;17.00;55.40
9544;DHT22;30418;51.45933468;7.33152330;2023-05-16T00:27:56;17.00;55.60
9544;DHT22;30418;51.45933468;7.33152330;2023-05-16T00:30:24;16.90;55.60
9544;DHT22;30418;51.45933468;7.33152330;2023-05-16T00:32:55;16.90;56.30
9544;DHT22;30418;51.45933468;7.33152330;2023-05-16T00:35:24;16.90;55.80
9544;DHT22;30418;51.45933468;7.33152330;2023-05-16T00:37:52;16.80;55.70
9544;DHT22;30418;51.45933468;7.33152330;2023-05-16T00:40:21;16.80;55.90
9544;DHT22;30418;51.45933468;7.33152330;2023-05-16T00:42:50;16.80;55.90
9544;DHT22;30418;51.45933468;7.33152330;2023-05-16T00:45:18;16.80;55.90
9544;DHT22;30418;51.45933468;7.33152330;2023-05-16T00:47:47;16.70;55.90
9544;DHT22;30418;51.45933468;7.33152330;2023-05-16T00:50:17;16.70;56.00
9544;DHT22;30418;51.45933468;7.33152330;2023-05-16T00:52:46;16.60;56.00
9544;DHT22;30418;51.45933468;7.33152330;2023-05-16T00:55:15;16.60;56.10
9544;DHT22;30418;51.45933468;7.33152330;2023-05-16T00:57:44;16.60;56.20
9544;DHT22;30418;51.45933468;7.33152330;2023-05-16T01:00:13;16.60;56.20
9544;DHT22;30418;51.45933468;7.33152330;2023-05-16T01:02:42;16.50;56.10
9544;DHT22;30418;51.45933468;7.33152330;2023-05-16T01:05:11;16.50;56.10
9544;DHT22;30418;51.45933468;7.33152330;2023-05-16T01:07:41;16.50;56.20
9544;DHT22;30418;51.45933468;7.33152330;2023-05-16T01:10:10;16.50;56.30
9544;DHT22;30418;51.45933468;7.33152330;2023-05-16T01:12:47;16.50;56.40
9544;DHT22;30418;51.45933468;7.33152330;2023-05-16T01:15:24;16.50;56.60
9544;DHT22;30418;51.45933468;7.33152330;2023-05-16T01:17:59;16.50;56.40
9544;DHT22;30418;51.45933468;7.33152330;2023-05-16T01:20:36;16.50;56.50
9544;DHT22;30418;51.45933468;7.33152330;2023-05-16T01:23:22;16.50;56.80
9544;DHT22;30418;51.45933468;7.33152330;2023-05-16T01:26:13;16.50;57.00
9544;DHT22;30418;51.45933468;7.33152330;2023-05-16T01:28:44;16.40;57.00
9544;DHT22;30418;51.45933468;7.33152330;2023-05-16T01:31:14;16.40;56.50
9544;DHT22;30418;51.45933468;7.33152330;2023-05-16T01:33:44;16.40;56.50
9544;DHT22;30418;51.45933468;7.33152330;2023-05-16T01:36:23;16.40;56.70
9544;DHT22;30418;51.45933468;7.33152330;2023-05-16T01:39:00;16.40;57.00
9544;DHT22;30418;51.45933468;7.33152330;2023-05-16T01:41:40;16.30;56.60
9544;DHT22;30418;51.45933468;7.33152330;2023-05-16T01:44:17;16.30;56.90
9544;DHT22;30418;51.45933468;7.33152330;2023-05-16T01:46:54;16.20;56.70
9544;DHT22;30418;51.45933468;7.33152330;2023-05-16T01:49:29;16.20;56.80
9544;DHT22;30418;51.45933468;7.33152330;2023-05-16T01:52:03;16.20;56.80
9544;DHT22;30418;51.45933468;7.33152330;2023-05-16T01:54:37;16.20;56.80
9544;DHT22;30418;51.45933468;7.33152330;2023-05-16T01:57:09;16.10;56.60
9544;DHT22;30418;51.45933468;7.33152330;2023-05-16T01:59:38;16.10;56.30
9544;DHT22;30418;51.45933468;7.33152330;2023-05-16T02:02:09;16.00;56.20
9544;DHT22;30418;51.45933468;7.33152330;2023-05-16T02:04:38;15.90;56.00
9544;DHT22;30418;51.45933468;7.33152330;2023-05-16T02:07:06;15.90;56.10
9544;DHT22;30418;51.45933468;7.33152330;2023-05-16T02:09:36;15.80;56.10
9544;DHT22;30418;51.45933468;7.33152330;2023-05-16T02:12:08;15.70;56.00
9544;DHT22;30418;51.45933468;7.33152330;2023-05-16T02:14:36;15.70;56.20
9544;DHT22;30418;51.45933468;7.33152330;2023-05-16T02:17:06;15.60;56.10
9544;DHT22;30418;51.45933468;7.33152330;2023-05-16T02:19:35;15.60;56.20
9544;DHT22;30418;51.45933468;7.33152330;2023-05-16T02:22:04;15.50;56.20
9544;DHT22;30418;51.45933468;7.33152330;2023-05-16T02:24:33;15.50;56.90
9544;DHT22;30418;51.45933468;7.33152330;2023-05-16T02:27:02;15.40;56.20
9544;DHT22;30418;51.45933468;7.33152330;2023-05-16T02:29:32;15.40;56.20
9544;DHT22;30418;51.45933468;7.33152330;2023-05-16T02:32:01;15.40;56.20
9544;DHT22;30418;51.45933468;7.33152330;2023-05-16T02:34:29;15.30;56.10
9544;DHT22;30418;51.45933468;7.33152330;2023-05-16T02:36:58;15.30;56.20
9544;DHT22;30418;51.45933468;7.33152330;2023-05-16T02:39:26;15.30;56.10
9544;DHT22;30418;51.45933468;7.33152330;2023-05-16T02:41:55;15.20;56.10
9544;DHT22;30418;51.45933468;7.33152330;2023-05-16T02:44:24;15.20;56.00
9544;DHT22;30418;51.45933468;7.33152330;2023-05-16T02:46:54;15.20;56.10
9544;DHT22;30418;51.45933468;7.33152330;2023-05-16T02:49:23;15.20;56.40
9544;DHT22;30418;51.45933468;7.33152330;2023-05-16T02:51:51;15.20;56.30
9544;DHT22;30418;51.45933468;7.33152330;2023-05-16T02:54:21;15.20;56.40
9544;DHT22;30418;51.45933468;7.33152330;2023-05-16T02:56:49;15.20;56.60
9544;DHT22;30418;51.45933468;7.33152330;2023-05-16T02:59:18;15.20;56.60
9544;DHT22;30418;51.45933468;7.33152330;2023-05-16T03:01:47;15.20;56.60
9544;DHT22;30418;51.45933468;7.33152330;2023-05-16T03:04:17;15.20;56.60
9544;DHT22;30418;51.45933468;7.33152330;2023-05-16T03:06:45;15.20;56.60
9544;DHT22;30418;51.45933468;7.33152330;2023-05-16T03:09:13;15.30;56.50
9544;DHT22;30418;51.45933468;7.33152330;2023-05-16T03:11:42;15.30;56.50
9544;DHT22;30418;51.45933468;7.33152330;2023-05-16T03:14:11;15.30;56.40
9544;DHT22;30418;51.45933468;7.33152330;2023-05-16T03:16:39;15.20;56.40
9544;DHT22;30418;51.45933468;7.33152330;2023-05-16T03:19:10;15.20;56.40
9544;DHT22;30418;51.45933468;7.33152330;2023-05-16T03:21:40;15.20;56.40
9544;DHT22;30418;51.45933468;7.33152330;2023-05-16T03:24:10;15.20;56.60
9544;DHT22;30418;51.45933468;7.33152330;2023-05-16T03:26:38;15.20;56.80
9544;DHT22;30418;51.45933468;7.33152330;2023-05-16T03:29:07;15.20;56.70
9544;DHT22;30418;51.45933468;7.33152330;2023-05-16T03:31:36;15.20;56.60
9544;DHT22;30418;51.45933468;7.33152330;2023-05-16T03:34:04;15.20;56.50
9544;DHT22;30418;51.45933468;7.33152330;2023-05-16T03:36:33;15.20;56.50
9544;DHT22;30418;51.45933468;7.33152330;2023-05-16T03:39:04;15.20;56.60
9544;DHT22;30418;51.45933468;7.33152330;2023-05-16T03:41:34;15.20;56.70
9544;DHT22;30418;51.45933468;7.33152330;2023-05-16T03:44:03;15.20;56.60
9544;DHT22;30418;51.45933468;7.33152330;2023-05-16T03:46:32;15.20;56.50
9544;DHT22;30418;51.45933468;7.33152330;2023-05-16T03:49:00;15.20;56.40
9544;DHT22;30418;51.45933468;7.33152330;2023-05-16T03:51:29;15.20;56.50
9544;DHT22;30418;51.45933468;7.33152330;2023-05-16T03:53:57;15.20;56.50
9544;DHT22;30418;51.45933468;7.33152330;2023-05-16T03:56:28;15.10;56.40
9544;DHT22;30418;51.45933468;7.33152330;2023-05-16T03:58:56;15.10;56.40
9544;DHT22;30418;51.45933468;7.33152330;2023-05-16T04:01:24;15.10;56.40
9544;DHT22;30418;51.45933468;7.33152330;2023-05-16T04:03:53;15.10;56.40
9544;DHT22;30418;51.45933468;7.33152330;2023-05-16T04:06:22;15.10;56.40
9544;DHT22;30418;51.45933468;7.33152330;2023-05-16T04:08:51;15.10;56.30
9544;DHT22;30418;51.45933468;7.33152330;2023-05-16T04:11:20;15.10;56.30
9544;DHT22;30418;51.45933468;7.33152330;2023-05-16T04:13:50;15.10;56.40
9544;DHT22;30418;51.45933468;7.33152330;2023-05-16T04:16:20;15.00;56.50
9544;DHT22;30418;51.45933468;7.33152330;2023-05-16T04:18:48;15.00;56.40
9544;DHT22;30418;51.45933468;7.33152330;2023-05-16T04:21:17;15.00;56.40
9544;DHT22;30418;51.45933468;7.33152330;2023-05-16T04:23:45;15.00;56.40
9544;DHT22;30418;51.45933468;7.33152330;2023-05-16T04:26:14;15.00;56.20
9544;DHT22;30418;51.45933468;7.33152330;2023-05-16T04:28:42;15.00;55.90
9544;DHT22;30418;51.45933468;7.33152330;2023-05-16T04:31:13;15.00;55.90
9544;DHT22;30418;51.45933468;7.33152330;2023-05-16T04:33:42;15.00;55.90
9544;DHT22;30418;51.45933468;7.33152330;2023-05-16T04:36:11;14.90;55.80
9544;DHT22;30418;51.45933468;7.33152330;2023-05-16T04:38:40;14.80;55.70
9544;DHT22;30418;51.45933468;7.33152330;2023-05-16T04:41:08;14.80;55.80
9544;DHT22;30418;51.45933468;7.33152330;2023-05-16T04:43:37;14.80;55.80
9544;DHT22;30418;51.45933468;7.33152330;2023-05-16T04:46:06;14.80;55.90
9544;DHT22;30418;51.45933468;7.33152330;2023-05-16T04:48:36;14.70;56.00
9544;DHT22;30418;51.45933468;7.33152330;2023-05-16T04:51:04;14.70;56.10
9544;DHT22;30418;51.45933468;7.33152330;2023-05-16T04:53:33;14.70;56.00
9544;DHT22;30418;51.45933468;7.33152330;2023-05-16T04:56:01;14.70;56.00
9544;DHT22;30418;51.45933468;7.33152330;2023-05-16T04:58:31;14.70;56.10
9544;DHT22;30418;51.45933468;7.33152330;2023-05-16T05:01:00;14.70;56.10
9544;DHT22;30418;51.45933468;7.33152330;2023-05-16T05:03:29;14.70;56.10
9544;DHT22;30418;51.45933468;7.33152330;2023-05-16T05:05:58;14.70;56.10
9544;DHT22;30418;51.45933468;7.33152330;2023-05-16T05:08:27;14.70;56.20
9544;DHT22;30418;51.45933468;7.33152330;2023-05-16T05:10:56;14.70;56.10
9544;DHT22;30418;51.45933468;7.33152330;2023-05-16T05:13:24;14.70;56.20
9544;DHT22;30418;51.45933468;7.33152330;2023-05-16T05:15:52;14.70;56.30
9544;DHT22;30418;51.45933468;7.33152330;2023-05-16T05:18:21;14.70;56.30
9544;DHT22;30418;51.45933468;7.33152330;2023-05-16T05:20:49;14.70;56.30
9544;DHT22;30418;51.45933468;7.33152330;2023-05-16T05:23:20;14.70;56.30
9544;DHT22;30418;51.45933468;7.33152330;2023-05-16T05:25:48;14.80;56.20
9544;DHT22;30418;51.45933468;7.33152330;2023-05-16T05:28:17;14.80;56.00
9544;DHT22;30418;51.45933468;7.33152330;2023-05-16T05:30:45;14.70;55.90
9544;DHT22;30418;51.45933468;7.33152330;2023-05-16T05:33:17;14.70;55.80
9544;DHT22;30418;51.45933468;7.33152330;2023-05-16T05:35:46;14.70;55.90
9544;DHT22;30418;51.45933468;7.33152330;2023-05-16T05:38:14;14.70;55.90
9544;DHT22;30418;51.45933468;7.33152330;2023-05-16T05:40:44;14.70;56.00
9544;DHT22;30418;51.45933468;7.33152330;2023-05-16T05:43:13;14.70;56.10
9544;DHT22;30418;51.45933468;7.33152330;2023-05-16T05:45:42;14.70;56.00
9544;DHT22;30418;51.45933468;7.33152330;2023-05-16T05:48:11;14.70;55.90
9544;DHT22;30418;51.45933468;7.33152330;2023-05-16T05:50:40;14.70;55.90
9544;DHT22;30418;51.45933468;7.33152330;2023-05-16T05:53:08;14.70;55.70
9544;DHT22;30418;51.45933468;7.33152330;2023-05-16T05:55:37;14.70;55.70
9544;DHT22;30418;51.45933468;7.33152330;2023-05-16T05:58:09;14.70;55.70
9544;DHT22;30418;51.45933468;7.33152330;2023-05-16T06:00:38;14.70;55.40
9544;DHT22;30418;51.45933468;7.33152330;2023-05-16T06:03:06;14.70;55.40
9544;DHT22;30418;51.45933468;7.33152330;2023-05-16T06:05:34;14.60;55.40
9544;DHT22;30418;51.45933468;7.33152330;2023-05-16T06:08:03;14.60;55.50
9544;DHT22;30418;51.45933468;7.33152330;2023-05-16T06:10:31;14.60;55.50
9544;DHT22;30418;51.45933468;7.33152330;2023-05-16T06:13:00;14.60;55.50
9544;DHT22;30418;51.45933468;7.33152330;2023-05-16T06:15:30;14.60;55.40
9544;DHT22;30418;51.45933468;7.33152330;2023-05-16T06:17:59;14.60;55.50
9544;DHT22;30418;51.45933468;7.33152330;2023-05-16T06:20:28;14.60;55.60
9544;DHT22;30418;51.45933468;7.33152330;2023-05-16T06:22:57;14.50;55.80
9544;DHT22;30418;51.45933468;7.33152330;2023-05-16T06:25:25;14.50;55.90
9544;DHT22;30418;51.45933468;7.33152330;2023-05-16T06:27:54;14.50;55.70
9544;DHT22;30418;51.45933468;7.33152330;2023-05-16T06:30:23;14.50;55.50
9544;DHT22;30418;51.45933468;7.33152330;2023-05-16T06:32:52;14.50;56.20
9544;DHT22;30418;51.45933468;7.33152330;2023-05-16T06:35:22;14.50;55.80
9544;DHT22;30418;51.45933468;7.33152330;2023-05-16T06:37:50;14.50;55.90
9544;DHT22;30418;51.45933468;7.33152330;2023-05-16T06:40:19;14.50;55.50
9544;DHT22;30418;51.45933468;7.33152330;2023-05-16T06:42:47;14.50;55.50
9544;DHT22;30418;51.45933468;7.33152330;2023-05-16T06:45:16;14.50;55.50
9544;DHT22;30418;51.45933468;7.33152330;2023-05-16T06:47:45;14.50;55.40
9544;DHT22;30418;51.45933468;7.33152330;2023-05-16T06:50:15;14.50;55.40
9544;DHT22;30418;51.45933468;7.33152330;2023-05-16T06:52:44;14.40;55.40
9544;DHT22;30418;51.45933468;7.33152330;2023-05-16T06:55:13;14.40;55.40
9544;DHT22;30418;51.45933468;7.33152330;2023-05-16T06:57:41;14.50;55.50
9544;DHT22;30418;51.45933468;7.33152330;2023-05-16T07:00:10;14.40;55.10
9544;DHT22;30418;51.45933468;7.33152330;2023-05-16T07:02:39;14.40;55.00
9544;DHT22;30418;51.45933468;7.33152330;2023-05-16T07:05:08;14.40;55.80
9544;DHT22;30418;51.45933468;7.33152330;2023-05-16T07:07:39;14.50;55.40
9544;DHT22;30418;51.45933468;7.33152330;2023-05-16T07:10:08;14.50;55.50
9544;DHT22;30418;51.45933468;7.33152330;2023-05-16T07:12:40;14.50;55.50
9544;DHT22;30418;51.45933468;7.33152330;2023-05-16T07:15:10;14.60;55.60
9544;DHT22;30418;51.45933468;7.33152330;2023-05-16T07:17:39;14.60;55.50
9544;DHT22;30418;51.45933468;7.33152330;2023-05-16T07:20:08;14.60;55.20
9544;DHT22;30418;51.45933468;7.33152330;2023-05-16T07:22:40;14.70;54.90
9544;DHT22;30418;51.45933468;7.33152330;2023-05-16T07:25:09;14.70;55.00
9544;DHT22;30418;51.45933468;7.33152330;2023-05-16T07:27:39;14.70;54.90
9544;DHT22;30418;51.45933468;7.33152330;2023-05-16T07:30:12;14.70;55.50
9544;DHT22;30418;51.45933468;7.33152330;2023-05-16T07:32:41;14.70;54.60
9544;DHT22;30418;51.45933468;7.33152330;2023-05-16T07:35:10;14.70;54.40
9544;DHT22;30418;51.45933468;7.33152330;2023-05-16T07:37:40;14.60;54.40
9544;DHT22;30418;51.45933468;7.33152330;2023-05-16T07:40:10;14.70;54.40
9544;DHT22;30418;51.45933468;7.33152330;2023-05-16T07:42:40;14.70;54.60
9544;DHT22;30418;51.45933468;7.33152330;2023-05-16T07:45:09;14.80;54.70
9544;DHT22;30418;51.45933468;7.33152330;2023-05-16T07:47:37;14.80;54.70
9544;DHT22;30418;51.45933468;7.33152330;2023-05-16T07:50:07;14.80;54.60
9544;DHT22;30418;51.45933468;7.33152330;2023-05-16T07:52:36;14.80;54.80
9544;DHT22;30418;51.45933468;7.33152330;2023-05-16T07:55:08;14.90;54.70
9544;DHT22;30418;51.45933468;7.33152330;2023-05-16T07:57:36;15.00;54.50
9544;DHT22;30418;51.45933468;7.33152330;2023-05-16T08:00:06;15.10;53.90
9544;DHT22;30418;51.45933468;7.33152330;2023-05-16T08:02:38;15.10;53.40
9544;DHT22;30418;51.45933468;7.33152330;2023-05-16T08:05:08;15.10;52.90
9544;DHT22;30418;51.45933468;7.33152330;2023-05-16T08:07:37;15.10;52.90
9544;DHT22;30418;51.45933468;7.33152330;2023-05-16T08:10:08;15.10;53.00
9544;DHT22;30418;51.45933468;7.33152330;2023-05-16T08:12:39;15.20;53.40
9544;DHT22;30418;51.45933468;7.33152330;2023-05-16T08:15:08;15.30;53.50
9544;DHT22;30418;51.45933468;7.33152330;2023-05-16T08:17:38;15.40;53.50
9544;DHT22;30418;51.45933468;7.33152330;2023-05-16T08:20:07;15.50;53.30
9544;DHT22;30418;51.45933468;7.33152330;2023-05-16T08:22:36;15.50;53.10
9544;DHT22;30418;51.45933468;7.33152330;2023-05-16T08:25:07;15.70;53.10
9544;DHT22;30418;51.45933468;7.33152330;2023-05-16T08:27:35;15.80;53.10
9544;DHT22;30418;51.45933468;7.33152330;2023-05-16T08:30:05;15.90;52.70
9544;DHT22;30418;51.45933468;7.33152330;2023-05-16T08:32:34;15.90;52.50
9544;DHT22;30418;51.45933468;7.33152330;2023-05-16T08:35:03;15.90;52.50
9544;DHT22;30418;51.45933468;7.33152330;2023-05-16T08:37:33;16.00;51.90
9544;DHT22;30418;51.45933468;7.33152330;2023-05-16T08:40:03;16.10;51.60
9544;DHT22;30418;51.45933468;7.33152330;2023-05-16T08:42:36;16.10;51.60
9544;DHT22;30418;51.45933468;7.33152330;2023-05-16T08:45:07;16.10;51.20
9544;DHT22;30418;51.45933468;7.33152330;2023-05-16T08:47:37;16.10;50.90
9544;DHT22;30418;51.45933468;7.33152330;2023-05-16T08:50:08;16.20;50.60
9544;DHT22;30418;51.45933468;7.33152330;2023-05-16T08:52:38;16.20;50.60
9544;DHT22;30418;51.45933468;7.33152330;2023-05-16T08:55:09;16.30;50.80
9544;DHT22;30418;51.45933468;7.33152330;2023-05-16T08:57:40;16.30;50.80
9544;DHT22;30418;51.45933468;7.33152330;2023-05-16T09:00:10;16.30;50.70
9544;DHT22;30418;51.45933468;7.33152330;2023-05-16T09:02:40;16.40;50.50
9544;DHT22;30418;51.45933468;7.33152330;2023-05-16T09:05:11;16.40;50.60
9544;DHT22;30418;51.45933468;7.33152330;2023-05-16T09:07:41;16.50;51.20
9544;DHT22;30418;51.45933468;7.33152330;2023-05-16T09:10:11;16.50;50.30
9544;DHT22;30418;51.45933468;7.33152330;2023-05-16T09:12:41;16.60;50.80
9544;DHT22;30418;51.45933468;7.33152330;2023-05-16T09:15:10;16.60;49.80
9544;DHT22;30418;51.45933468;7.33152330;2023-05-16T09:17:42;16.60;49.80
9544;DHT22;30418;51.45933468;7.33152330;2023-05-16T09:20:14;16.60;49.80
9544;DHT22;30418;51.45933468;7.33152330;2023-05-16T09:22:51;16.60;49.70
9544;DHT22;30418;51.45933468;7.33152330;2023-05-16T09:25:20;16.50;48.90
9544;DHT22;30418;51.45933468;7.33152330;2023-05-16T09:27:55;16.50;49.40
9544;DHT22;30418;51.45933468;7.33152330;2023-05-16T09:30:27;16.50;49.10
9544;DHT22;30418;51.45933468;7.33152330;2023-05-16T09:32:58;16.40;49.20
9544;DHT22;30418;51.45933468;7.33152330;2023-05-16T09:35:27;16.40;49.70
9544;DHT22;30418;51.45933468;7.33152330;2023-05-16T09:37:58;16.40;49.10
9544;DHT22;30418;51.45933468;7.33152330;2023-05-16T09:40:27;16.40;48.80
9544;DHT22;30418;51.45933468;7.33152330;2023-05-16T09:43:03;16.50;48.80
9544;DHT22;30418;51.45933468;7.33152330;2023-05-16T09:45:33;16.60;48.70
9544;DHT22;30418;51.45933468;7.33152330;2023-05-16T09:48:05;16.60;49.00
9544;DHT22;30418;51.45933468;7.33152330;2023-05-16T09:50:35;16.70;48.80
9544;DHT22;30418;51.45933468;7.33152330;2023-05-16T09:53:06;16.70;48.80
9544;DHT22;30418;51.45933468;7.33152330;2023-05-16T09:55:34;16.80;48.80
9544;DHT22;30418;51.45933468;7.33152330;2023-05-16T09:58:04;16.80;49.20
9544;DHT22;30418;51.45933468;7.33152330;2023-05-16T10:00:33;16.80;48.30
9544;DHT22;30418;51.45933468;7.33152330;2023-05-16T10:03:02;16.80;48.40
9544;DHT22;30418;51.45933468;7.33152330;2023-05-16T10:05:32;16.80;48.60
9544;DHT22;30418;51.45933468;7.33152330;2023-05-16T10:08:02;16.80;48.60
9544;DHT22;30418;51.45933468;7.33152330;2023-05-16T10:10:35;16.80;48.50
9544;DHT22;30418;51.45933468;7.33152330;2023-05-16T10:13:07;16.90;48.90
9544;DHT22;30418;51.45933468;7.33152330;2023-05-16T10:15:37;17.00;48.50
9544;DHT22;30418;51.45933468;7.33152330;2023-05-16T10:18:07;17.00;48.40
9544;DHT22;30418;51.45933468;7.33152330;2023-05-16T10:20:41;17.00;48.20
9544;DHT22;30418;51.45933468;7.33152330;2023-05-16T10:23:15;17.20;47.90
9544;DHT22;30418;51.45933468;7.33152330;2023-05-16T10:25:48;17.20;48.00
9544;DHT22;30418;51.45933468;7.33152330;2023-05-16T10:28:19;17.30;48.40
9544;DHT22;30418;51.45933468;7.33152330;2023-05-16T10:30:47;17.40;48.40
9544;DHT22;30418;51.45933468;7.33152330;2023-05-16T10:33:17;17.50;48.40
9544;DHT22;30418;51.45933468;7.33152330;2023-05-16T10:35:46;17.60;48.00
9544;DHT22;30418;51.45933468;7.33152330;2023-05-16T10:38:17;17.60;47.60
9544;DHT22;30418;51.45933468;7.33152330;2023-05-16T10:40:46;17.60;47.30
9544;DHT22;30418;51.45933468;7.33152330;2023-05-16T10:43:23;17.60;47.30
9544;DHT22;30418;51.45933468;7.33152330;2023-05-16T10:45:54;17.50;46.70
9544;DHT22;30418;51.45933468;7.33152330;2023-05-16T10:48:28;17.50;47.10
9544;DHT22;30418;51.45933468;7.33152330;2023-05-16T10:50:57;17.50;47.00
9544;DHT22;30418;51.45933468;7.33152330;2023-05-16T10:53:30;17.50;47.30
9544;DHT22;30418;51.45933468;7.33152330;2023-05-16T10:56:07;17.50;47.60
9544;DHT22;30418;51.45933468;7.33152330;2023-05-16T10:58:43;17.60;47.60
9544;DHT22;30418;51.45933468;7.33152330;2023-05-16T11:01:22;17.60;47.50
9544;DHT22;30418;51.45933468;7.33152330;2023-05-16T11:04:04;17.60;47.30
9544;DHT22;30418;51.45933468;7.33152330;2023-05-16T11:06:35;17.60;47.10
9544;DHT22;30418;51.45933468;7.33152330;2023-05-16T11:09:23;17.70;47.50
9544;DHT22;30418;51.45933468;7.33152330;2023-05-16T11:11:58;17.70;46.90
9544;DHT22;30418;51.45933468;7.33152330;2023-05-16T11:14:37;17.70;47.40
9544;DHT22;30418;51.45933468;7.33152330;2023-05-16T11:17:09;17.70;47.10
9544;DHT22;30418;51.45933468;7.33152330;2023-05-16T11:19:41;17.80;47.60
9544;DHT22;30418;51.45933468;7.33152330;2023-05-16T11:22:20;17.80;47.70
9544;DHT22;30418;51.45933468;7.33152330;2023-05-16T11:24:55;17.90;47.60
9544;DHT22;30418;51.45933468;7.33152330;2023-05-16T11:27:29;17.90;47.60
9544;DHT22;30418;51.45933468;7.33152330;2023-05-16T11:30:10;18.00;47.60
9544;DHT22;30418;51.45933468;7.33152330;2023-05-16T11:32:41;18.10;47.50
9544;DHT22;30418;51.45933468;7.33152330;2023-05-16T11:35:12;18.20;48.10
9544;DHT22;30418;51.45933468;7.33152330;2023-05-16T11:37:43;18.30;47.90
9544;DHT22;30418;51.45933468;7.33152330;2023-05-16T11:40:13;18.40;48.00
9544;DHT22;30418;51.45933468;7.33152330;2023-05-16T11:42:45;18.50;47.70
9544;DHT22;30418;51.45933468;7.33152330;2023-05-16T11:45:17;18.50;47.40
9544;DHT22;30418;51.45933468;7.33152330;2023-05-16T11:47:47;18.60;47.40
9544;DHT22;30418;51.45933468;7.33152330;2023-05-16T11:50:17;18.60;47.30
9544;DHT22;30418;51.45933468;7.33152330;2023-05-16T11:52:49;18.60;47.00
9544;DHT22;30418;51.45933468;7.33152330;2023-05-16T11:55:21;18.60;46.60
9544;DHT22;30418;51.45933468;7.33152330;2023-05-16T11:58:08;18.60;46.50
9544;DHT22;30418;51.45933468;7.33152330;2023-05-16T12:00:46;18.60;46.40
9544;DHT22;30418;51.45933468;7.33152330;2023-05-16T12:03:17;18.50;46.30
9544;DHT22;30418;51.45933468;7.33152330;2023-05-16T12:05:50;18.50;46.60
9544;DHT22;30418;51.45933468;7.33152330;2023-05-16T12:08:20;18.50;46.70
9544;DHT22;30418;51.45933468;7.33152330;2023-05-16T12:10:50;18.50;47.10
9544;DHT22;30418;51.45933468;7.33152330;2023-05-16T12:13:22;18.50;47.40
9544;DHT22;30418;51.45933468;7.33152330;2023-05-16T12:15:53;18.60;47.50
9544;DHT22;30418;51.45933468;7.33152330;2023-05-16T12:18:23;18.60;47.50
9544;DHT22;30418;51.45933468;7.33152330;2023-05-16T12:20:52;18.60;47.40
9544;DHT22;30418;51.45933468;7.33152330;2023-05-16T12:23:21;18.70;47.50
9544;DHT22;30418;51.45933468;7.33152330;2023-05-16T12:25:49;18.70;47.10
9544;DHT22;30418;51.45933468;7.33152330;2023-05-16T12:28:21;18.80;47.00
9544;DHT22;30418;51.45933468;7.33152330;2023-05-16T12:30:49;18.80;47.10
9544;DHT22;30418;51.45933468;7.33152330;2023-05-16T12:33:20;18.90;47.00
9544;DHT22;30418;51.45933468;7.33152330;2023-05-16T12:35:49;19.00;46.80
9544;DHT22;30418;51.45933468;7.33152330;2023-05-16T12:38:19;19.00;46.20
9544;DHT22;30418;51.45933468;7.33152330;2023-05-16T12:40:48;19.00;46.00
9544;DHT22;30418;51.45933468;7.33152330;2023-05-16T12:43:19;19.00;46.10
9544;DHT22;30418;51.45933468;7.33152330;2023-05-16T12:45:52;18.90;46.20
9544;DHT22;30418;51.45933468;7.33152330;2023-05-16T12:48:31;18.80;46.20
9544;DHT22;30418;51.45933468;7.33152330;2023-05-16T12:51:10;18.70;46.10
9544;DHT22;30418;51.45933468;7.33152330;2023-05-16T12:53:41;18.70;45.80
9544;DHT22;30418;51.45933468;7.33152330;2023-05-16T12:56:27;18.60;45.80
9544;DHT22;30418;51.45933468;7.33152330;2023-05-16T12:58:56;18.50;45.80
9544;DHT22;30418;51.45933468;7.33152330;2023-05-16T13:01:24;18.50;45.70
9544;DHT22;30418;51.45933468;7.33152330;2023-05-16T13:03:54;18.50;45.80
9544;DHT22;30418;51.45933468;7.33152330;2023-05-16T13:06:24;18.50;46.00
9544;DHT22;30418;51.45933468;7.33152330;2023-05-16T13:08:53;18.50;46.00
9544;DHT22;30418;51.45933468;7.33152330;2023-05-16T13:11:22;18.50;45.90
9544;DHT22;30418;51.45933468;7.33152330;2023-05-16T13:13:50;18.50;45.80
9544;DHT22;30418;51.45933468;7.33152330;2023-05-16T13:16:19;18.50;45.50
9544;DHT22;30418;51.45933468;7.33152330;2023-05-16T13:18:48;18.50;45.30
9544;DHT22;30418;51.45933468;7.33152330;2023-05-16T13:21:18;18.50;45.20
9544;DHT22;30418;51.45933468;7.33152330;2023-05-16T13:23:48;18.40;45.20
9544;DHT22;30418;51.45933468;7.33152330;2023-05-16T13:26:17;18.40;45.20
9544;DHT22;30418;51.45933468;7.33152330;2023-05-16T13:28:45;18.40;45.40
9544;DHT22;30418;51.45933468;7.33152330;2023-05-16T13:31:17;18.40;45.60
9544;DHT22;30418;51.45933468;7.33152330;2023-05-16T13:33:46;18.30;45.60
9544;DHT22;30418;51.45933468;7.33152330;2023-05-16T13:36:14;18.30;45.50
9544;DHT22;30418;51.45933468;7.33152330;2023-05-16T13:38:44;18.30;45.40
9544;DHT22;30418;51.45933468;7.33152330;2023-05-16T13:41:13;18.30;45.40
9544;DHT22;30418;51.45933468;7.33152330;2023-05-16T13:43:42;18.30;45.60
9544;DHT22;30418;51.45933468;7.33152330;2023-05-16T13:46:10;18.30;45.80
9544;DHT22;30418;51.45933468;7.33152330;2023-05-16T13:48:39;18.40;45.90
9544;DHT22;30418;51.45933468;7.33152330;2023-05-16T13:51:08;18.40;46.00